Time;durP1;ratioP1;P1;durP2;ratioP2;P2;SDS_P1;SDS_P2;PMS_P1;PMS_P2;Temp;Humidity;BMP_temperature;BMP_pressure;BME280_temperature;BME280_humidity;BME280_pressure;Samples;Min_cycle;Max_cycle;Signal;HPM_P1;HPM_P2
2024/04/04 00:01:55;;;;;;;0.80;0.63;;;;;;;;;;5032550;28;20064;-66
2024/04/04 00:04:21;;;;;;;1.25;0.60;;;;;;;;;;5032424;28;20448;-68
2024/04/04 00:06:46;;;;;;;0.50;0.50;;;;;;;;;;5031986;28;20148;-71
2024/04/04 00:09:13;;;;;;;1.90;0.60;;;;;;;;;;5033276;28;20290;-70
2024/04/04 00:11:38;;;;;;;0.80;0.70;;;;;;;;;;5031221;28;20091;-69
2024/04/04 00:14:05;;;;;;;0.90;0.70;;;;;;;;;;5032157;28;20033;-68
2024/04/04 00:16:35;;;;;;;0.90;0.77;;;;;;;;;;5032161;28;20049;-70
2024/04/04 00:19:00;;;;;;;0.52;0.52;;;;;;;;;;5032239;28;20022;-70
2024/04/04 00:21:25;;;;;;;1.05;0.68;;;;;;;;;;5032114;28;20026;-70
2024/04/04 00:23:51;;;;;;;0.50;0.50;;;;;;;;;;5032276;28;20029;-69
2024/04/04 00:26:16;;;;;;;0.70;0.50;;;;;;;;;;5032465;28;20079;-70
2024/04/04 00:28:41;;;;;;;1.48;0.75;;;;;;;;;;5031613;28;20037;-68
2024/04/04 00:31:08;;;;;;;0.65;0.63;;;;;;;;;;5032063;28;20353;-70
2024/04/04 00:33:33;;;;;;;1.13;0.60;;;;;;;;;;5031939;28;20026;-69
2024/04/04 00:35:59;;;;;;;1.80;0.80;;;;;;;;;;5031835;28;20029;-71
2024/04/04 00:38:24;;;;;;;0.82;0.80;;;;;;;;;;5032455;28;20037;-70
2024/04/04 00:40:49;;;;;;;0.65;0.63;;;;;;;;;;5032098;28;20030;-70
2024/04/04 00:43:15;;;;;;;0.68;0.60;;;;;;;;;;5031701;28;20014;-71
2024/04/04 00:45:40;;;;;;;0.73;0.50;;;;;;;;;;5031881;28;20026;-71
2024/04/04 00:48:06;;;;;;;0.50;0.50;;;;;;;;;;5032136;28;20360;-71
2024/04/04 00:50:32;;;;;;;0.50;0.50;;;;;;;;;;5031457;28;20021;-68
2024/04/04 00:52:57;;;;;;;1.60;0.47;;;;;;;;;;5031953;28;20048;-71
2024/04/04 00:55:23;;;;;;;0.40;0.30;;;;;;;;;;5032180;28;20045;-70
2024/04/04 00:57:50;;;;;;;0.80;0.60;;;;;;;;;;5031936;28;20096;-71
2024/04/04 01:00:15;;;;;;;0.68;0.52;;;;;;;;;;5031768;28;20029;-70
2024/04/04 01:02:41;;;;;;;0.88;0.45;;;;;;;;;;5035578;28;20025;-71
2024/04/04 01:05:06;;;;;;;1.00;0.50;;;;;;;;;;5035721;28;20029;-70
2024/04/04 01:07:35;;;;;;;0.68;0.50;;;;;;;;;;5035985;28;20060;-69
2024/04/04 01:10:06;;;;;;;0.35;0.35;;;;;;;;;;5035342;28;20032;-69
2024/04/04 01:12:32;;;;;;;0.57;0.50;;;;;;;;;;5035347;28;20071;-70
2024/04/04 01:14:58;;;;;;;0.38;0.30;;;;;;;;;;5035333;28;20108;-68
2024/04/04 01:17:24;;;;;;;1.80;0.50;;;;;;;;;;5035611;28;20029;-68
2024/04/04 01:19:50;;;;;;;0.45;0.43;;;;;;;;;;5035245;28;20069;-69
2024/04/04 01:22:15;;;;;;;0.70;0.50;;;;;;;;;;5035199;28;20056;-69
2024/04/04 01:24:41;;;;;;;0.63;0.50;;;;;;;;;;5035571;28;20115;-68
2024/04/04 01:27:06;;;;;;;1.10;0.60;;;;;;;;;;5035332;28;20068;-68
2024/04/04 01:29:31;;;;;;;0.40;0.40;;;;;;;;;;5034916;28;20017;-69
2024/04/04 01:31:57;;;;;;;0.40;0.40;;;;;;;;;;5035362;28;20029;-70
2024/04/04 01:34:22;;;;;;;0.65;0.40;;;;;;;;;;5035346;28;20364;-70
2024/04/04 01:36:47;;;;;;;0.73;0.40;;;;;;;;;;5033907;28;20086;-70
2024/04/04 01:39:13;;;;;;;0.40;0.30;;;;;;;;;;5035028;28;20039;-71
2024/04/04 01:41:39;;;;;;;0.30;0.30;;;;;;;;;;5035127;28;20104;-70
2024/04/04 01:44:06;;;;;;;2.20;0.50;;;;;;;;;;5034800;28;20480;-72
2024/04/04 01:46:31;;;;;;;2.65;0.50;;;;;;;;;;5035105;28;20428;-63
2024/04/04 01:48:56;;;;;;;0.60;0.50;;;;;;;;;;5035108;28;20028;-70
2024/04/04 01:51:22;;;;;;;0.52;0.52;;;;;;;;;;5034532;28;20045;-71
2024/04/04 01:53:47;;;;;;;0.73;0.57;;;;;;;;;;5034768;28;20099;-71
2024/04/04 01:56:13;;;;;;;0.47;0.45;;;;;;;;;;5034603;28;20083;-69
2024/04/04 01:58:38;;;;;;;0.30;0.30;;;;;;;;;;5032725;28;20029;-70
2024/04/04 02:01:04;;;;;;;0.90;0.40;;;;;;;;;;5033997;28;20033;-69
2024/04/04 02:03:29;;;;;;;1.38;0.57;;;;;;;;;;5034590;28;20025;-71
2024/04/04 02:05:54;;;;;;;0.68;0.60;;;;;;;;;;5034544;28;20017;-69
2024/04/04 02:08:20;;;;;;;0.60;0.60;;;;;;;;;;5034505;28;20447;-69
2024/04/04 02:10:45;;;;;;;0.60;0.60;;;;;;;;;;5034115;28;20021;-70
2024/04/04 02:13:11;;;;;;;0.40;0.40;;;;;;;;;;5033934;28;20027;-68
2024/04/04 02:15:39;;;;;;;0.60;0.43;;;;;;;;;;5033699;28;20052;-68
2024/04/04 02:18:06;;;;;;;1.65;0.95;;;;;;;;;;5034316;28;20059;-69
2024/04/04 02:20:32;;;;;;;1.15;0.50;;;;;;;;;;5034211;28;20033;-65
2024/04/04 02:22:58;;;;;;;2.17;0.80;;;;;;;;;;5034612;28;20091;-69
2024/04/04 02:25:23;;;;;;;0.93;0.68;;;;;;;;;;5034244;28;20030;-69
2024/04/04 02:27:48;;;;;;;0.70;0.60;;;;;;;;;;5034444;28;20022;-70
2024/04/04 02:30:14;;;;;;;0.88;0.70;;;;;;;;;;5033600;28;20029;-69
2024/04/04 02:32:39;;;;;;;0.82;0.82;;;;;;;;;;5033860;28;20033;-68
2024/04/04 02:35:05;;;;;;;3.08;0.70;;;;;;;;;;5034316;28;20032;-68
2024/04/04 02:37:30;;;;;;;1.25;0.70;;;;;;;;;;5034417;28;20433;-70
2024/04/04 02:39:56;;;;;;;0.85;0.52;;;;;;;;;;5033384;28;20021;-72
2024/04/04 02:42:21;;;;;;;1.05;0.50;;;;;;;;;;5033736;28;20041;-70
2024/04/04 02:44:47;;;;;;;3.08;0.90;;;;;;;;;;5033817;28;20021;-70
2024/04/04 02:47:12;;;;;;;0.60;0.60;;;;;;;;;;5033815;28;20025;-72
2024/04/04 02:49:38;;;;;;;0.70;0.57;;;;;;;;;;5033139;28;20033;-71
2024/04/04 02:52:04;;;;;;;0.57;0.50;;;;;;;;;;5034114;28;20044;-71
2024/04/04 02:54:29;;;;;;;0.77;0.73;;;;;;;;;;5033181;28;20045;-70
2024/04/04 02:56:54;;;;;;;0.90;0.80;;;;;;;;;;5033456;28;20032;-72
2024/04/04 02:59:20;;;;;;;3.20;0.90;;;;;;;;;;5033672;28;20033;-70
2024/04/04 03:01:45;;;;;;;1.92;0.90;;;;;;;;;;5033741;28;20053;-71
2024/04/04 03:04:11;;;;;;;2.90;0.85;;;;;;;;;;5033415;28;20026;-71
2024/04/04 03:06:37;;;;;;;0.95;0.50;;;;;;;;;;5033071;28;20018;-68
2024/04/04 03:09:08;;;;;;;1.15;0.70;;;;;;;;;;5033941;28;20108;-70
2024/04/04 03:11:34;;;;;;;0.60;0.60;;;;;;;;;;5033904;28;20041;-70
2024/04/04 03:14:00;;;;;;;0.70;0.70;;;;;;;;;;5033374;28;20033;-70
2024/04/04 03:16:25;;;;;;;0.95;0.82;;;;;;;;;;5033165;28;20891;-67
2024/04/04 03:18:50;;;;;;;0.98;0.90;;;;;;;;;;5033242;28;20444;-71
2024/04/04 03:21:16;;;;;;;2.25;0.85;;;;;;;;;;5033073;28;20021;-69
2024/04/04 03:23:41;;;;;;;0.77;0.77;;;;;;;;;;5032699;28;20364;-68
2024/04/04 03:26:07;;;;;;;0.80;0.80;;;;;;;;;;5032218;28;20018;-63
2024/04/04 03:28:32;;;;;;;0.90;0.80;;;;;;;;;;5033389;28;20017;-67
2024/04/04 03:30:57;;;;;;;1.00;0.90;;;;;;;;;;5032877;28;20025;-68
2024/04/04 03:33:23;;;;;;;1.70;1.00;;;;;;;;;;5032620;28;20048;-69
2024/04/04 03:35:48;;;;;;;0.80;0.70;;;;;;;;;;5032813;28;20028;-68
2024/04/04 03:38:14;;;;;;;3.67;1.00;;;;;;;;;;5032642;28;20049;-67
2024/04/04 03:40:39;;;;;;;2.28;0.77;;;;;;;;;;5033059;28;20033;-70
2024/04/04 03:43:06;;;;;;;2.55;0.80;;;;;;;;;;5033038;28;20444;-71
2024/04/04 03:45:37;;;;;;;0.77;0.73;;;;;;;;;;5032760;28;20037;-70
2024/04/04 03:48:02;;;;;;;0.95;0.80;;;;;;;;;;5032353;28;20032;-67
2024/04/04 03:50:28;;;;;;;1.25;0.77;;;;;;;;;;5032631;28;20026;-70
2024/04/04 03:52:53;;;;;;;0.95;0.75;;;;;;;;;;5032386;28;20459;-70
2024/04/04 03:55:18;;;;;;;2.03;0.73;;;;;;;;;;5032116;28;20342;-73
2024/04/04 03:57:44;;;;;;;0.80;0.80;;;;;;;;;;5032464;28;20043;-69
2024/04/04 04:00:10;;;;;;;1.27;0.80;;;;;;;;;;5031707;28;20037;-66
2024/04/04 04:02:36;;;;;;;2.55;1.10;;;;;;;;;;5032770;28;20022;-69
2024/04/04 04:05:02;;;;;;;1.00;0.80;;;;;;;;;;5031848;28;20104;-72
2024/04/04 04:07:29;;;;;;;1.42;0.70;;;;;;;;;;5032297;28;20095;-69
2024/04/04 04:09:55;;;;;;;4.60;0.77;;;;;;;;;;5032328;28;20026;-70
2024/04/04 04:12:20;;;;;;;2.13;0.60;;;;;;;;;;5032064;28;20092;-71
2024/04/04 04:14:45;;;;;;;3.70;0.75;;;;;;;;;;5032070;28;20018;-70
2024/04/04 04:17:11;;;;;;;1.50;0.68;;;;;;;;;;5032267;28;20079;-70
2024/04/04 04:19:37;;;;;;;0.65;0.60;;;;;;;;;;5032461;28;20017;-72
2024/04/04 04:22:03;;;;;;;1.83;0.50;;;;;;;;;;5032229;28;20072;-70
2024/04/04 04:24:28;;;;;;;3.17;0.70;;;;;;;;;;5031930;28;20400;-71
2024/04/04 04:26:53;;;;;;;2.67;0.63;;;;;;;;;;5032081;28;20029;-68
2024/04/04 04:29:19;;;;;;;0.98;0.57;;;;;;;;;;5030870;28;20076;-71
2024/04/04 04:31:45;;;;;;;1.48;0.70;;;;;;;;;;5032253;28;20052;-68
2024/04/04 04:34:11;;;;;;;2.20;0.70;;;;;;;;;;5032186;28;20022;-62
2024/04/04 04:36:37;;;;;;;0.63;0.52;;;;;;;;;;5034643;28;20108;-70
2024/04/04 04:39:04;;;;;;;2.45;0.55;;;;;;;;;;5035922;28;20027;-69
2024/04/04 04:41:29;;;;;;;1.17;0.47;;;;;;;;;;5035996;28;20021;-72
2024/04/04 04:43:55;;;;;;;2.33;0.40;;;;;;;;;;5035694;28;20456;-71
2024/04/04 04:46:20;;;;;;;1.55;0.40;;;;;;;;;;5036100;28;20075;-68
2024/04/04 04:48:46;;;;;;;0.40;0.32;;;;;;;;;;5036212;28;20428;-69
2024/04/04 04:51:12;;;;;;;2.72;0.60;;;;;;;;;;5035512;28;20403;-60
2024/04/04 04:53:38;;;;;;;3.55;0.50;;;;;;;;;;5036350;28;20037;-69
2024/04/04 04:56:04;;;;;;;4.38;0.60;;;;;;;;;;5035824;28;20061;-70
2024/04/04 04:58:30;;;;;;;0.98;0.55;;;;;;;;;;5036150;28;20033;-68
2024/04/04 05:00:56;;;;;;;4.38;0.50;;;;;;;;;;5035803;28;20017;-69
2024/04/04 05:03:21;;;;;;;2.90;0.60;;;;;;;;;;5035628;28;20025;-69
2024/04/04 05:05:47;;;;;;;1.00;0.47;;;;;;;;;;5035344;28;20155;-68
2024/04/04 05:08:13;;;;;;;1.67;0.43;;;;;;;;;;5035862;28;20029;-64
2024/04/04 05:10:38;;;;;;;0.57;0.32;;;;;;;;;;5035695;28;20071;-69
2024/04/04 05:13:04;;;;;;;2.15;0.50;;;;;;;;;;5035211;28;20127;-70
2024/04/04 05:15:29;;;;;;;0.77;0.30;;;;;;;;;;5035476;28;20045;-70
2024/04/04 05:17:54;;;;;;;1.98;0.52;;;;;;;;;;5035833;28;20021;-71
2024/04/04 05:20:20;;;;;;;0.95;0.60;;;;;;;;;;5035593;28;20344;-71
2024/04/04 05:22:45;;;;;;;1.33;0.70;;;;;;;;;;5035319;28;20108;-67
2024/04/04 05:25:14;;;;;;;2.38;0.50;;;;;;;;;;5035958;28;20038;-69
2024/04/04 05:27:43;;;;;;;0.57;0.57;;;;;;;;;;5035741;28;20337;-68
2024/04/04 05:30:15;;;;;;;1.33;0.70;;;;;;;;;;5034180;28;20444;-70
2024/04/04 05:32:40;;;;;;;0.80;0.40;;;;;;;;;;5035445;28;20420;-70
2024/04/04 05:35:06;;;;;;;1.17;0.40;;;;;;;;;;5034879;28;20049;-71
2024/04/04 05:37:32;;;;;;;0.52;0.40;;;;;;;;;;5035245;28;20108;-67
2024/04/04 05:39:57;;;;;;;1.88;0.45;;;;;;;;;;5033365;28;20362;-64
2024/04/04 05:42:24;;;;;;;0.60;0.40;;;;;;;;;;5035194;28;20459;-66
2024/04/04 05:44:49;;;;;;;1.95;0.68;;;;;;;;;;5034991;28;20029;-66
2024/04/04 05:47:15;;;;;;;0.98;0.60;;;;;;;;;;5033275;28;20036;-64
2024/04/04 05:49:40;;;;;;;0.73;0.40;;;;;;;;;;5035292;28;20104;-68
2024/04/04 05:52:06;;;;;;;0.80;0.50;;;;;;;;;;5034946;28;20419;-69
2024/04/04 05:54:31;;;;;;;0.63;0.40;;;;;;;;;;5033562;28;20052;-67
2024/04/04 05:56:57;;;;;;;0.82;0.40;;;;;;;;;;5034553;28;20033;-66
2024/04/04 05:59:22;;;;;;;1.75;0.40;;;;;;;;;;5034964;28;20025;-68
2024/04/04 06:01:47;;;;;;;0.77;0.60;;;;;;;;;;5034892;28;20428;-67
2024/04/04 06:04:13;;;;;;;0.50;0.50;;;;;;;;;;5034546;28;20033;-67
2024/04/04 06:06:41;;;;;;;0.95;0.52;;;;;;;;;;5035002;28;20025;-66
2024/04/04 06:09:07;;;;;;;1.85;0.55;;;;;;;;;;5034896;28;20028;-68
2024/04/04 06:11:32;;;;;;;1.45;0.52;;;;;;;;;;5034647;28;20037;-68
2024/04/04 06:13:57;;;;;;;2.63;0.60;;;;;;;;;;5034700;28;20033;-68
2024/04/04 06:16:23;;;;;;;1.13;0.63;;;;;;;;;;5034545;28;20048;-68
2024/04/04 06:18:48;;;;;;;2.13;0.80;;;;;;;;;;5034742;28;20160;-69
2024/04/04 06:21:14;;;;;;;0.50;0.50;;;;;;;;;;5034714;28;20045;-68
2024/04/04 06:23:39;;;;;;;1.40;0.60;;;;;;;;;;5034571;28;20341;-68
2024/04/04 06:26:04;;;;;;;1.58;0.60;;;;;;;;;;5033870;28;20057;-68
2024/04/04 06:28:30;;;;;;;2.08;0.50;;;;;;;;;;5034125;28;20025;-68
2024/04/04 06:30:55;;;;;;;1.92;0.70;;;;;;;;;;5034176;28;20413;-67
2024/04/04 06:33:20;;;;;;;3.88;0.70;;;;;;;;;;5034201;28;20017;-68
2024/04/04 06:35:46;;;;;;;2.25;0.88;;;;;;;;;;5034467;28;20026;-68
2024/04/04 06:38:11;;;;;;;1.48;0.70;;;;;;;;;;5034282;28;20018;-68
2024/04/04 06:40:37;;;;;;;1.45;0.70;;;;;;;;;;5032826;28;20242;-68
2024/04/04 06:43:03;;;;;;;3.10;0.68;;;;;;;;;;5034230;28;20039;-68
2024/04/04 06:45:28;;;;;;;1.40;0.70;;;;;;;;;;5033959;28;20025;-68
2024/04/04 06:47:55;;;;;;;2.58;0.90;;;;;;;;;;5034117;28;20474;-66
2024/04/04 06:50:20;;;;;;;2.15;1.00;;;;;;;;;;5033519;28;20031;-68
2024/04/04 06:52:45;;;;;;;5.13;0.95;;;;;;;;;;5034029;28;20116;-68
2024/04/04 06:55:11;;;;;;;1.38;0.70;;;;;;;;;;5032964;28;20087;-67
2024/04/04 06:57:36;;;;;;;2.22;0.60;;;;;;;;;;5033767;28;20030;-68
2024/04/04 07:00:02;;;;;;;0.65;0.47;;;;;;;;;;5033730;28;20029;-67
2024/04/04 07:02:30;;;;;;;5.05;0.80;;;;;;;;;;5033660;28;20021;-67
2024/04/04 07:04:55;;;;;;;0.52;0.52;;;;;;;;;;5032513;28;20021;-68
2024/04/04 07:07:22;;;;;;;4.00;0.88;;;;;;;;;;5033207;28;20064;-65
2024/04/04 07:09:47;;;;;;;2.15;0.70;;;;;;;;;;5033910;28;20029;-69
2024/04/04 07:12:13;;;;;;;1.08;0.50;;;;;;;;;;5033459;28;20109;-68
2024/04/04 07:14:39;;;;;;;2.22;0.65;;;;;;;;;;5033403;28;20402;-69
2024/04/04 07:17:04;;;;;;;2.05;0.77;;;;;;;;;;5032896;28;20018;-67
2024/04/04 07:19:30;;;;;;;0.70;0.70;;;;;;;;;;5033295;28;20040;-68
2024/04/04 07:21:55;;;;;;;1.92;0.80;;;;;;;;;;5033454;28;20040;-68
2024/04/04 07:24:21;;;;;;;3.50;1.17;;;;;;;;;;5032937;28;20017;-66
2024/04/04 07:26:48;;;;;;;4.63;0.90;;;;;;;;;;5032521;28;20087;-69
2024/04/04 07:29:14;;;;;;;1.23;0.60;;;;;;;;;;5033201;28;20032;-70
2024/04/04 07:31:39;;;;;;;3.63;0.80;;;;;;;;;;5033204;28;20029;-70
2024/04/04 07:34:05;;;;;;;3.45;1.08;;;;;;;;;;5033052;28;20037;-71
2024/04/04 07:36:30;;;;;;;3.30;0.70;;;;;;;;;;5032883;28;20025;-71
2024/04/04 07:38:55;;;;;;;3.05;0.60;;;;;;;;;;5032835;28;20056;-69
2024/04/04 07:41:21;;;;;;;4.63;0.85;;;;;;;;;;5031832;28;20029;-69
2024/04/04 07:43:47;;;;;;;2.35;0.80;;;;;;;;;;5015302;28;20018;-67
2024/04/04 07:46:13;;;;;;;3.33;0.82;;;;;;;;;;5032985;28;20083;-67
2024/04/04 07:48:42;;;;;;;2.85;0.70;;;;;;;;;;5032811;28;20390;-70
2024/04/04 07:51:09;;;;;;;3.38;0.70;;;;;;;;;;5032612;28;20083;-68
2024/04/04 07:53:34;;;;;;;2.05;0.85;;;;;;;;;;5031078;28;20456;-64
2024/04/04 07:56:00;;;;;;;4.95;0.60;;;;;;;;;;5027879;28;20048;-64
2024/04/04 07:58:26;;;;;;;1.23;0.52;;;;;;;;;;5033309;28;20030;-69
2024/04/04 08:00:52;;;;;;;3.90;0.50;;;;;;;;;;5032903;28;20035;-69
2024/04/04 08:03:18;;;;;;;2.50;0.50;;;;;;;;;;5032701;28;20040;-69
2024/04/04 08:05:43;;;;;;;2.53;0.50;;;;;;;;;;5031166;28;20026;-70
2024/04/04 08:08:09;;;;;;;2.50;0.43;;;;;;;;;;5032315;28;20371;-69
2024/04/04 08:10:35;;;;;;;1.50;0.70;;;;;;;;;;5031397;28;20041;-64
2024/04/04 08:13:01;;;;;;;2.63;0.70;;;;;;;;;;5032176;28;20060;-64
2024/04/04 08:15:27;;;;;;;1.65;0.70;;;;;;;;;;5031702;28;20424;-65
2024/04/04 08:17:52;;;;;;;2.08;0.95;;;;;;;;;;5032480;28;20049;-63
2024/04/04 08:20:18;;;;;;;4.10;1.50;;;;;;;;;;5031165;28;20013;-67
2024/04/04 08:22:46;;;;;;;5.43;0.80;;;;;;;;;;5031706;28;20071;-63
2024/04/04 08:25:13;;;;;;;2.92;0.70;;;;;;;;;;5030561;28;20021;-65
2024/04/04 08:27:38;;;;;;;1.83;0.70;;;;;;;;;;5032152;28;20452;-66
2024/04/04 08:30:05;;;;;;;1.13;0.60;;;;;;;;;;5031818;28;20017;-66
2024/04/04 08:32:32;;;;;;;2.58;0.90;;;;;;;;;;5031267;28;20057;-65
2024/04/04 08:35:00;;;;;;;4.90;0.80;;;;;;;;;;5031065;28;20036;-65
2024/04/04 08:37:25;;;;;;;6.60;1.05;;;;;;;;;;5031794;28;20036;-69
2024/04/04 08:39:51;;;;;;;2.58;0.80;;;;;;;;;;5028287;28;20018;-67
2024/04/04 08:42:16;;;;;;;3.38;0.95;;;;;;;;;;5030067;28;20105;-65
2024/04/04 08:44:43;;;;;;;12.63;1.17;;;;;;;;;;5031397;28;20032;-67
2024/04/04 08:47:12;;;;;;;6.13;1.20;;;;;;;;;;5031148;28;20009;-67
2024/04/04 08:49:39;;;;;;;8.43;1.10;;;;;;;;;;5031635;28;20116;-68
2024/04/04 08:52:04;;;;;;;2.53;0.93;;;;;;;;;;5031869;28;20506;-67
2024/04/04 08:54:30;;;;;;;8.23;0.90;;;;;;;;;;5031609;28;20128;-67
2024/04/04 08:56:55;;;;;;;2.60;0.80;;;;;;;;;;5031768;28;20038;-73
2024/04/04 08:59:23;;;;;;;1.77;0.82;;;;;;;;;;5031892;28;20010;-68
2024/04/04 09:01:49;;;;;;;2.72;0.90;;;;;;;;;;5032021;28;20057;-70
2024/04/04 09:04:27;;;;;;;3.30;0.77;;;;;;;;;;5031887;28;20064;-71
2024/04/04 09:06:53;;;;;;;5.05;1.08;;;;;;;;;;5032267;28;20448;-67
2024/04/04 09:09:19;;;;;;;2.65;0.95;;;;;;;;;;5030953;28;20060;-67
2024/04/04 09:11:45;;;;;;;3.08;1.15;;;;;;;;;;5031400;28;20063;-68
2024/04/04 09:14:10;;;;;;;1.88;1.20;;;;;;;;;;5028128;28;20414;-72
2024/04/04 09:16:39;;;;;;;2.08;1.00;;;;;;;;;;5031042;28;20021;-68
2024/04/04 09:19:11;;;;;;;2.78;0.80;;;;;;;;;;5031138;28;20022;-69
2024/04/04 09:21:37;;;;;;;5.15;1.20;;;;;;;;;;5031697;28;20497;-69
2024/04/04 09:24:04;;;;;;;4.22;1.48;;;;;;;;;;5033181;28;20029;-61
2024/04/04 09:26:29;;;;;;;3.83;1.83;;;;;;;;;;5032927;28;20021;-65
2024/04/04 09:28:56;;;;;;;5.30;1.77;;;;;;;;;;5034049;28;20029;-66
2024/04/04 09:31:23;;;;;;;1.77;0.80;;;;;;;;;;5032666;28;20029;-63
2024/04/04 09:33:50;;;;;;;1.02;0.40;;;;;;;;;;5034546;28;20029;-65
2024/04/04 09:36:15;;;;;;;3.22;0.50;;;;;;;;;;5034547;28;20112;-65
2024/04/04 09:38:41;;;;;;;4.53;0.80;;;;;;;;;;5034537;28;20096;-67
2024/04/04 09:41:08;;;;;;;4.68;0.85;;;;;;;;;;5034285;28;20025;-68
2024/04/04 09:43:34;;;;;;;2.65;0.68;;;;;;;;;;5034713;28;20030;-65
2024/04/04 09:46:00;;;;;;;2.80;0.73;;;;;;;;;;5034598;28;20033;-66
2024/04/04 09:48:25;;;;;;;1.67;0.50;;;;;;;;;;5033926;28;20485;-65
2024/04/04 09:50:51;;;;;;;1.05;0.60;;;;;;;;;;5034794;28;20032;-66
2024/04/04 09:53:17;;;;;;;1.25;0.50;;;;;;;;;;5034484;28;20183;-65
2024/04/04 09:55:43;;;;;;;3.60;0.60;;;;;;;;;;5033111;28;20053;-67
2024/04/04 09:58:09;;;;;;;3.08;1.00;;;;;;;;;;5032333;28;20088;-67
2024/04/04 10:00:40;;;;;;;1.65;0.88;;;;;;;;;;5034250;28;20037;-67
2024/04/04 10:03:10;;;;;;;2.22;0.80;;;;;;;;;;5033211;28;20337;-68
2024/04/04 10:05:36;;;;;;;1.65;0.80;;;;;;;;;;5033538;28;20372;-67
2024/04/04 10:08:11;;;;;;;2.22;0.85;;;;;;;;;;5034200;28;20416;-70
2024/04/04 10:10:41;;;;;;;1.38;0.90;;;;;;;;;;5033373;28;20029;-70
2024/04/04 10:13:07;;;;;;;1.10;0.80;;;;;;;;;;5033859;28;20057;-68
2024/04/04 10:15:43;;;;;;;1.30;0.70;;;;;;;;;;5033855;28;20056;-69
2024/04/04 10:18:12;;;;;;;1.58;0.60;;;;;;;;;;5033539;28;20353;-71
2024/04/04 10:20:43;;;;;;;2.45;0.80;;;;;;;;;;5033099;28;20028;-70
2024/04/04 10:23:13;;;;;;;0.82;0.60;;;;;;;;;;5033547;28;20028;-67
2024/04/04 10:25:42;;;;;;;1.85;0.75;;;;;;;;;;5033070;28;20356;-67
2024/04/04 10:28:07;;;;;;;6.55;1.20;;;;;;;;;;5033451;28;20025;-69
2024/04/04 10:30:34;;;;;;;5.00;1.30;;;;;;;;;;5033500;28;20424;-69
2024/04/04 10:33:09;;;;;;;6.20;1.42;;;;;;;;;;5031377;28;20039;-67
2024/04/04 10:35:35;;;;;;;5.25;2.13;;;;;;;;;;5032744;28;20303;-66
2024/04/04 10:38:13;;;;;;;3.97;1.75;;;;;;;;;;5031806;28;20025;-66
2024/04/04 10:40:39;;;;;;;1.98;1.35;;;;;;;;;;5032794;28;20029;-65
2024/04/04 10:43:06;;;;;;;3.67;1.70;;;;;;;;;;5033283;28;20036;-66
2024/04/04 10:45:31;;;;;;;4.15;1.70;;;;;;;;;;5033441;28;20100;-67
2024/04/04 10:47:57;;;;;;;2.00;1.67;;;;;;;;;;5031692;28;20113;-67
2024/04/04 10:50:24;;;;;;;2.45;1.77;;;;;;;;;;5033918;28;20052;-67
2024/04/04 10:52:50;;;;;;;4.10;1.70;;;;;;;;;;5033482;28;20482;-67
2024/04/04 10:55:15;;;;;;;3.67;1.52;;;;;;;;;;5027333;28;20074;-68
2024/04/04 10:57:41;;;;;;;3.97;1.60;;;;;;;;;;5032915;28;20047;-68
2024/04/04 11:00:13;;;;;;;4.82;2.00;;;;;;;;;;5033298;28;20597;-65
2024/04/04 11:02:46;;;;;;;4.57;1.70;;;;;;;;;;5033218;28;20021;-67
2024/04/04 11:05:11;;;;;;;2.38;0.88;;;;;;;;;;5032226;28;20025;-65
2024/04/04 11:07:39;;;;;;;3.05;1.00;;;;;;;;;;5031197;28;20103;-66
2024/04/04 11:10:06;;;;;;;3.03;1.20;;;;;;;;;;5032746;28;20029;-65
2024/04/04 11:12:31;;;;;;;3.60;1.23;;;;;;;;;;5032205;28;20108;-65
2024/04/04 11:14:59;;;;;;;2.72;1.00;;;;;;;;;;5032288;28;20468;-62
2024/04/04 11:17:24;;;;;;;2.70;1.00;;;;;;;;;;5032536;28;20028;-67
2024/04/04 11:20:00;;;;;;;3.67;1.20;;;;;;;;;;5031380;28;20030;-66
2024/04/04 11:22:25;;;;;;;4.00;1.25;;;;;;;;;;5013868;28;20022;-67
2024/04/04 11:24:51;;;;;;;3.28;1.20;;;;;;;;;;5017232;28;20667;-67
2024/04/04 11:27:16;;;;;;;2.63;1.05;;;;;;;;;;5031611;28;20199;-64
2024/04/04 11:29:41;;;;;;;4.85;1.27;;;;;;;;;;5032109;28;20036;-67
2024/04/04 11:32:07;;;;;;;2.25;0.90;;;;;;;;;;5032604;28;20110;-67
2024/04/04 11:34:32;;;;;;;3.15;1.38;;;;;;;;;;5027351;28;20160;-66
2024/04/04 11:36:58;;;;;;;1.85;1.13;;;;;;;;;;5026630;28;20024;-64
2024/04/04 11:39:23;;;;;;;3.60;1.30;;;;;;;;;;5032622;28;20021;-66
2024/04/04 11:41:50;;;;;;;3.45;1.30;;;;;;;;;;5030756;28;20024;-65
2024/04/04 11:44:16;;;;;;;6.85;1.23;;;;;;;;;;5029042;28;20060;-68
2024/04/04 11:46:41;;;;;;;4.53;1.30;;;;;;;;;;5031196;28;20056;-67
2024/04/04 11:49:06;;;;;;;4.15;1.23;;;;;;;;;;5020166;28;20013;-67
2024/04/04 11:51:32;;;;;;;3.90;1.50;;;;;;;;;;5012661;28;20345;-65
2024/04/04 11:53:58;;;;;;;8.45;1.58;;;;;;;;;;5012062;28;20026;-64
2024/04/04 11:56:24;;;;;;;9.77;2.10;;;;;;;;;;5030098;28;20033;-66
2024/04/04 11:58:49;;;;;;;6.15;3.03;;;;;;;;;;5030862;28;20132;-66
2024/04/04 12:01:15;;;;;;;10.25;3.10;;;;;;;;;;5031151;28;20021;-65
2024/04/04 12:03:40;;;;;;;4.82;2.45;;;;;;;;;;5031344;28;20029;-66
2024/04/04 12:06:05;;;;;;;10.73;3.20;;;;;;;;;;5029898;28;20021;-63
2024/04/04 12:08:31;;;;;;;6.20;2.83;;;;;;;;;;5030311;28;20021;-67
2024/04/04 12:11:00;;;;;;;5.63;3.10;;;;;;;;;;5029937;28;20025;-66
2024/04/04 12:13:25;;;;;;;8.50;3.25;;;;;;;;;;5029953;28;20033;-67
2024/04/04 12:15:51;;;;;;;6.32;3.22;;;;;;;;;;5031112;28;20037;-65
2024/04/04 12:21:04;;;;;;;7.38;2.40;;;;;;;;;;5028755;28;20021;-63
2024/04/04 12:23:29;;;;;;;6.65;2.20;;;;;;;;;;5028456;28;20025;-62
2024/04/04 12:25:54;;;;;;;5.43;2.20;;;;;;;;;;5031040;28;20444;-63
2024/04/04 12:28:20;;;;;;;4.05;2.10;;;;;;;;;;5031004;28;20047;-64
2024/04/04 12:30:46;;;;;;;4.00;1.85;;;;;;;;;;5030963;28;20044;-64
2024/04/04 12:33:11;;;;;;;4.30;1.70;;;;;;;;;;5030370;28;20394;-63
2024/04/04 12:35:36;;;;;;;6.03;2.20;;;;;;;;;;5031165;28;20035;-63
2024/04/04 12:38:02;;;;;;;7.95;1.90;;;;;;;;;;5030568;28;20052;-64
2024/04/04 12:40:27;;;;;;;4.10;2.33;;;;;;;;;;5030757;28;20056;-63
2024/04/04 12:42:53;;;;;;;3.63;2.20;;;;;;;;;;5029264;28;20056;-64
2024/04/04 12:45:19;;;;;;;8.07;2.40;;;;;;;;;;5028889;28;20021;-74
2024/04/04 12:47:44;;;;;;;16.25;2.63;;;;;;;;;;5028995;28;20037;-67
2024/04/04 12:50:09;;;;;;;8.00;2.72;;;;;;;;;;5030062;28;20013;-63
2024/04/04 12:52:35;;;;;;;3.35;1.83;;;;;;;;;;5030588;28;20041;-64
2024/04/04 12:55:00;;;;;;;6.00;1.52;;;;;;;;;;5028439;28;20357;-65
2024/04/04 12:57:26;;;;;;;2.42;1.40;;;;;;;;;;5033543;28;20039;-63
2024/04/04 12:59:51;;;;;;;2.97;1.42;;;;;;;;;;5032864;28;20044;-66
2024/04/04 13:02:17;;;;;;;2.08;1.08;;;;;;;;;;5034948;28;20030;-66
2024/04/04 13:04:42;;;;;;;4.18;1.25;;;;;;;;;;5034115;28;20103;-65
2024/04/04 13:07:07;;;;;;;6.10;1.60;;;;;;;;;;5034870;28;20022;-63
2024/04/04 13:09:33;;;;;;;7.18;2.53;;;;;;;;;;5032113;28;20041;-62
2024/04/04 13:11:59;;;;;;;6.97;3.40;;;;;;;;;;5033329;28;20519;-63
2024/04/04 13:14:25;;;;;;;3.40;1.90;;;;;;;;;;5034112;28;20029;-65
2024/04/04 13:16:51;;;;;;;4.28;1.65;;;;;;;;;;5031500;28;21511;-64
2024/04/04 13:19:18;;;;;;;8.18;1.80;;;;;;;;;;5033497;28;20614;-64
2024/04/04 13:21:43;;;;;;;3.67;1.40;;;;;;;;;;5035090;28;20033;-64
2024/04/04 13:24:09;;;;;;;5.10;1.80;;;;;;;;;;5034815;28;20084;-64
2024/04/04 13:26:34;;;;;;;4.18;1.35;;;;;;;;;;5033200;28;20391;-64
2024/04/04 13:29:00;;;;;;;8.68;1.80;;;;;;;;;;5016895;28;20022;-63
2024/04/04 13:31:25;;;;;;;9.68;1.90;;;;;;;;;;5033630;28;20044;-66
2024/04/04 13:33:50;;;;;;;7.93;2.30;;;;;;;;;;5034068;28;20108;-65
2024/04/04 13:36:16;;;;;;;8.63;1.98;;;;;;;;;;5033220;28;20036;-67
2024/04/04 13:38:41;;;;;;;9.50;2.40;;;;;;;;;;5033149;28;20444;-67
2024/04/04 13:41:07;;;;;;;10.10;2.53;;;;;;;;;;5032902;28;20090;-66
2024/04/04 13:43:33;;;;;;;7.20;2.17;;;;;;;;;;5033762;28;20017;-69
2024/04/04 13:45:58;;;;;;;7.30;2.20;;;;;;;;;;5033087;28;20083;-69
2024/04/04 13:48:24;;;;;;;5.38;1.85;;;;;;;;;;5033020;28;20033;-69
2024/04/04 13:50:49;;;;;;;7.88;2.30;;;;;;;;;;5033483;28;20098;-68
2024/04/04 13:53:15;;;;;;;6.65;2.15;;;;;;;;;;5031722;28;20041;-67
2024/04/04 13:55:41;;;;;;;5.78;2.03;;;;;;;;;;5030769;28;20523;-67
2024/04/04 13:58:06;;;;;;;4.90;2.10;;;;;;;;;;5031992;28;20033;-71
2024/04/04 14:00:32;;;;;;;6.03;2.30;;;;;;;;;;5032459;28;20389;-66
2024/04/04 14:02:57;;;;;;;5.15;2.08;;;;;;;;;;5031979;28;20084;-69
2024/04/04 14:05:23;;;;;;;6.88;2.05;;;;;;;;;;5033486;28;20079;-68
2024/04/04 14:07:48;;;;;;;5.32;2.17;;;;;;;;;;5032466;28;20041;-66
2024/04/04 14:10:14;;;;;;;1.98;1.77;;;;;;;;;;5031948;28;20095;-70
2024/04/04 14:12:39;;;;;;;8.68;2.10;;;;;;;;;;5032425;28;20444;-68
2024/04/04 14:15:04;;;;;;;5.97;2.13;;;;;;;;;;5032929;28;20021;-69
2024/04/04 14:17:30;;;;;;;6.97;2.33;;;;;;;;;;5033266;28;20396;-68
2024/04/04 14:19:55;;;;;;;12.73;2.42;;;;;;;;;;5032613;28;20040;-70
2024/04/04 14:22:21;;;;;;;4.07;2.38;;;;;;;;;;5033282;28;20033;-67
2024/04/04 14:24:46;;;;;;;7.38;2.10;;;;;;;;;;5032664;28;20026;-68
2024/04/04 14:27:12;;;;;;;9.43;2.60;;;;;;;;;;5032134;28;20701;-66
2024/04/04 14:29:37;;;;;;;3.78;2.10;;;;;;;;;;5031792;28;20112;-69
2024/04/04 14:32:02;;;;;;;5.20;2.20;;;;;;;;;;5015242;28;20124;-69
2024/04/04 14:34:28;;;;;;;6.35;2.55;;;;;;;;;;5032368;28;20104;-67
2024/04/04 14:36:53;;;;;;;4.90;1.90;;;;;;;;;;5031770;28;20029;-66
2024/04/04 14:39:19;;;;;;;7.10;2.35;;;;;;;;;;5032102;28;20033;-68